Time;durP1;ratioP1;P1;durP2;ratioP2;P2;SDS_P1;SDS_P2;PMS_P1;PMS_P2;Temp;Humidity;BMP_temperature;BMP_pressure;BME280_temperature;BME280_humidity;BME280_pressure;Samples;Min_cycle;Max_cycle;Signal;HPM_P1;HPM_P2
2022/06/04 00:00:35;;;;;;;12.10;9.15;;;11.70;99.90;;;;;;4904046;29;20036;-91
2022/06/04 00:03:00;;;;;;;15.70;9.50;;;11.40;99.90;;;;;;4919576;29;20047;-90
2022/06/04 00:05:27;;;;;;;20.17;9.20;;;11.30;99.90;;;;;;4904434;29;20062;-91
2022/06/04 00:07:54;;;;;;;16.23;8.48;;;11.40;99.90;;;;;;4919574;29;20059;-91
2022/06/04 00:15:56;;;;;;;16.20;8.88;;;11.70;99.90;;;;;;4907395;29;20044;-91
2022/06/04 00:18:22;;;;;;;14.13;8.27;;;11.50;99.90;;;;;;4908177;29;20076;-91
2022/06/04 00:20:48;;;;;;;17.08;8.82;;;11.50;99.90;;;;;;4923000;29;20055;-92
2022/06/04 00:23:14;;;;;;;13.73;8.68;;;11.60;99.90;;;;;;4908849;29;20098;-91
2022/06/04 00:25:42;;;;;;;15.52;8.68;;;11.60;99.90;;;;;;4904623;29;20190;-92
2022/06/04 00:28:09;;;;;;;14.80;8.52;;;11.60;99.90;;;;;;4903907;29;20400;-92
2022/06/04 00:30:35;;;;;;;14.38;7.60;;;11.50;99.90;;;;;;4903737;29;20484;-91
2022/06/04 00:33:00;;;;;;;14.85;8.32;;;11.40;99.90;;;;;;4899678;29;20067;-91
2022/06/04 00:35:26;;;;;;;17.13;10.25;;;11.30;99.90;;;;;;4900844;29;20081;-90
2022/06/04 00:37:52;;;;;;;15.75;9.35;;;11.40;99.90;;;;;;4915967;29;20054;-90
2022/06/04 00:40:37;;;;;;;15.70;7.97;;;11.40;99.90;;;;;;4885104;29;20134;-89
2022/06/04 00:43:03;;;;;;;13.18;8.90;;;11.50;99.90;;;;;;4900058;29;20143;-93
2022/06/04 00:45:32;;;;;;;17.20;8.40;;;11.50;99.90;;;;;;4900525;29;20097;-92
2022/06/04 00:47:59;;;;;;;14.00;8.43;;;11.50;99.90;;;;;;4915513;29;20056;-92
2022/06/04 00:50:25;;;;;;;20.90;9.75;;;11.50;99.90;;;;;;4900098;29;20484;-91
2022/06/04 00:52:51;;;;;;;18.60;9.15;;;11.40;99.90;;;;;;4899894;29;20130;-91
2022/06/04 00:55:16;;;;;;;22.27;10.38;;;11.40;99.90;;;;;;4899773;29;20048;-91
2022/06/04 00:58:02;;;;;;;20.30;9.75;;;11.30;99.90;;;;;;4900094;29;20044;-90
2022/06/04 01:00:40;;;;;;;17.88;10.25;;;11.40;99.90;;;;;;4915707;29;20052;-92
2022/06/04 01:03:24;;;;;;;15.95;10.05;;;11.40;99.90;;;;;;4900288;29;20485;-91
2022/06/04 01:06:16;;;;;;;28.33;11.65;;;11.30;99.90;;;;;;4899520;29;20062;-91
2022/06/04 01:09:05;;;;;;;17.83;10.20;;;11.20;99.90;;;;;;4899726;29;20052;-91
2022/06/04 01:12:09;;;;;;;19.40;10.20;;;11.20;99.90;;;;;;4915637;29;20445;-90
2022/06/04 01:14:47;;;;;;;18.30;10.60;;;11.10;99.90;;;;;;4915456;29;20052;-91
2022/06/04 01:17:37;;;;;;;18.85;10.13;;;11.20;99.90;;;;;;4899364;29;20063;-91
2022/06/04 01:20:28;;;;;;;16.02;10.63;;;11.10;99.90;;;;;;4915141;29;20548;-91
2022/06/04 01:23:03;;;;;;;16.77;10.68;;;11.00;99.90;;;;;;4885953;29;20064;-92
2022/06/04 01:25:46;;;;;;;20.85;10.57;;;11.00;99.90;;;;;;4885038;29;20060;-92
2022/06/04 01:28:16;;;;;;;18.98;11.02;;;10.90;99.90;;;;;;4914928;29;20048;-91
2022/06/04 01:30:51;;;;;;;16.88;10.70;;;11.00;99.90;;;;;;4900235;29;20055;-92
2022/06/04 01:33:23;;;;;;;18.30;11.25;;;10.90;99.90;;;;;;4900545;29;20063;-90
2022/06/04 01:35:58;;;;;;;21.13;11.60;;;10.80;99.90;;;;;;4900422;29;20143;-90
2022/06/04 01:38:42;;;;;;;25.73;11.88;;;10.80;99.90;;;;;;4913054;29;20067;-92
2022/06/04 01:41:14;;;;;;;16.67;11.85;;;10.90;99.90;;;;;;4915066;29;20056;-91
2022/06/04 01:43:46;;;;;;;22.15;12.00;;;10.90;99.90;;;;;;4912799;29;20152;-92
2022/06/04 01:46:13;;;;;;;25.00;12.82;;;10.80;99.90;;;;;;4909646;29;20048;-91
2022/06/04 01:48:40;;;;;;;20.05;10.75;;;10.70;99.90;;;;;;4903214;29;20059;-90
2022/06/04 01:51:06;;;;;;;21.40;11.95;;;10.80;99.90;;;;;;4901454;29;20055;-93
2022/06/04 01:53:36;;;;;;;20.10;12.77;;;10.90;99.90;;;;;;4901488;29;20544;-91
2022/06/04 01:56:05;;;;;;;23.92;13.63;;;10.80;99.90;;;;;;4900877;29;20055;-92
2022/06/04 01:58:41;;;;;;;23.77;13.18;;;10.80;99.90;;;;;;4885239;29;20091;-92
2022/06/04 02:01:09;;;;;;;22.20;11.85;;;10.70;99.90;;;;;;4900571;29;20382;-91
2022/06/04 02:03:37;;;;;;;20.65;11.70;;;10.80;99.90;;;;;;4900245;29;20074;-91
2022/06/04 02:06:17;;;;;;;25.95;13.93;;;10.70;99.90;;;;;;4884625;29;20099;-90
2022/06/04 02:08:45;;;;;;;26.45;14.38;;;10.60;99.90;;;;;;4900353;29;20055;-91
2022/06/04 02:11:12;;;;;;;23.75;13.02;;;10.60;99.90;;;;;;4884030;29;20048;-91
2022/06/04 02:13:38;;;;;;;20.58;13.45;;;10.60;99.90;;;;;;4899957;29;20132;-91
2022/06/04 02:16:14;;;;;;;27.52;14.85;;;10.60;99.90;;;;;;4899621;29;20471;-92
2022/06/04 02:18:39;;;;;;;26.58;13.57;;;10.60;99.90;;;;;;4899631;29;20051;-92
2022/06/04 02:21:07;;;;;;;22.85;13.43;;;10.60;99.90;;;;;;4899535;29;20497;-91
2022/06/04 02:23:34;;;;;;;27.17;14.88;;;10.60;99.90;;;;;;4899858;29;20044;-91
2022/06/04 02:26:00;;;;;;;28.30;15.43;;;10.60;99.90;;;;;;4899601;29;20048;-91
2022/06/04 02:28:25;;;;;;;25.52;14.98;;;10.50;99.90;;;;;;4911217;29;20052;-92
2022/06/04 02:30:57;;;;;;;24.95;14.85;;;10.50;99.90;;;;;;4920883;29;20071;-91
2022/06/04 02:33:45;;;;;;;29.60;15.93;;;10.40;99.90;;;;;;4916154;29;20385;-91
2022/06/04 02:36:33;;;;;;;21.20;14.45;;;10.40;99.90;;;;;;4904226;29;20052;-91
2022/06/04 02:39:08;;;;;;;28.92;14.63;;;10.40;99.90;;;;;;4904185;29;20052;-91
2022/06/04 02:41:39;;;;;;;28.90;16.65;;;10.40;99.90;;;;;;4903574;29;20051;-90
2022/06/04 02:44:28;;;;;;;29.15;16.48;;;10.30;99.90;;;;;;4903187;29;20131;-91
2022/06/04 02:47:06;;;;;;;29.45;16.00;;;10.20;99.90;;;;;;4903487;29;20134;-91
2022/06/04 02:50:01;;;;;;;30.13;16.73;;;10.20;99.90;;;;;;4903176;29;20400;-91
2022/06/04 02:52:26;;;;;;;29.63;16.42;;;10.20;99.90;;;;;;4918802;29;20064;-91
2022/06/04 02:54:55;;;;;;;30.23;16.05;;;10.30;99.90;;;;;;4903078;29;20052;-91
2022/06/04 02:57:21;;;;;;;28.23;15.77;;;11.30;99.90;;;;;;4902800;29;20111;-91
2022/06/04 02:59:47;;;;;;;26.60;16.33;;;10.30;99.90;;;;;;4903022;29;20139;-91
2022/06/04 03:02:14;;;;;;;29.67;17.02;;;10.40;99.90;;;;;;4901798;29;20191;-92
2022/06/04 03:04:49;;;;;;;28.15;15.35;;;10.20;99.90;;;;;;4903070;29;20131;-92
2022/06/04 03:07:15;;;;;;;27.15;16.30;;;10.20;99.90;;;;;;4903583;29;20052;-92
2022/06/04 03:09:40;;;;;;;24.90;16.27;;;10.10;99.90;;;;;;4903423;29;20052;-92
2022/06/04 03:12:07;;;;;;;24.83;15.02;;;10.10;99.90;;;;;;4902971;29;20063;-92
2022/06/04 03:14:33;;;;;;;27.63;16.92;;;10.20;99.90;;;;;;4888142;29;20143;-92
2022/06/04 03:17:00;;;;;;;29.58;17.23;;;10.40;99.90;;;;;;4902526;29;20191;-92
2022/06/04 03:19:25;;;;;;;25.25;15.95;;;10.10;99.90;;;;;;4903502;29;20056;-92
2022/06/04 03:21:51;;;;;;;26.45;16.90;;;10.00;99.90;;;;;;4920043;29;20143;-92
2022/06/04 03:24:17;;;;;;;27.65;17.48;;;10.10;99.90;;;;;;4918213;29;20048;-92
2022/06/04 03:26:43;;;;;;;31.50;18.13;;;9.80;99.90;;;;;;4917254;29;20048;-93
2022/06/04 03:29:08;;;;;;;26.35;16.17;;;9.80;99.90;;;;;;4906521;29;20131;-93
2022/06/04 03:31:34;;;;;;;31.02;16.00;;;10.00;99.90;;;;;;4910125;29;20048;-93
2022/06/04 03:34:00;;;;;;;23.45;14.85;;;10.00;99.90;;;;;;4902076;29;20064;-89
2022/06/04 03:36:26;;;;;;;28.42;15.55;;;10.00;99.90;;;;;;4901453;29;20055;-89
2022/06/04 03:38:55;;;;;;;22.17;15.57;;;10.10;99.90;;;;;;4909627;29;20135;-94
2022/06/04 03:41:21;;;;;;;21.83;15.35;;;10.10;99.90;;;;;;4896277;29;20503;-92
2022/06/04 03:43:51;;;;;;;26.98;13.68;;;10.10;99.90;;;;;;4910947;29;20040;-94
2022/06/04 03:46:21;;;;;;;26.92;16.00;;;11.20;99.90;;;;;;4908978;29;20054;-93
2022/06/04 03:48:46;;;;;;;19.85;12.43;;;10.40;99.90;;;;;;4910925;29;20138;-93
2022/06/04 03:51:12;;;;;;;21.08;13.23;;;10.50;99.90;;;;;;4924029;29;20088;-93
2022/06/04 03:53:38;;;;;;;23.88;13.73;;;10.60;99.90;;;;;;4912365;29;20468;-94
2022/06/04 03:56:04;;;;;;;21.25;12.60;;;10.50;99.90;;;;;;4909801;29;20481;-93
2022/06/04 03:58:32;;;;;;;21.38;13.32;;;10.50;99.90;;;;;;4909152;29;20554;-92
2022/06/04 04:00:57;;;;;;;22.15;13.00;;;10.50;99.90;;;;;;4904811;29;20047;-91
2022/06/04 04:03:23;;;;;;;21.50;13.23;;;10.60;99.90;;;;;;4920205;29;20111;-92
2022/06/04 04:05:50;;;;;;;22.70;12.93;;;10.60;99.90;;;;;;4903754;29;20042;-90
2022/06/04 04:08:17;;;;;;;20.55;12.82;;;10.60;99.90;;;;;;4887774;29;20086;-92
2022/06/04 04:10:43;;;;;;;20.63;12.77;;;10.60;99.90;;;;;;4904722;29;20052;-93
2022/06/04 04:13:09;;;;;;;21.27;12.70;;;10.70;99.90;;;;;;4922584;29;20061;-93
2022/06/04 04:15:35;;;;;;;26.60;12.98;;;10.80;99.90;;;;;;4919994;29;20098;-93
2022/06/04 04:18:01;;;;;;;19.83;12.23;;;10.80;99.90;;;;;;4919754;29;20079;-92
2022/06/04 04:20:28;;;;;;;22.65;12.77;;;10.80;99.90;;;;;;4887483;29;20054;-93
2022/06/04 04:22:54;;;;;;;18.52;11.77;;;10.90;99.90;;;;;;4888478;29;20051;-91
2022/06/04 04:25:21;;;;;;;19.15;12.45;;;10.90;99.90;;;;;;4904114;29;20107;-92
2022/06/04 04:27:47;;;;;;;19.02;11.27;;;10.90;99.90;;;;;;4920015;29;20130;-93
2022/06/04 04:30:14;;;;;;;20.00;11.00;;;11.00;99.90;;;;;;4888688;29;20156;-93
2022/06/04 04:32:40;;;;;;;20.75;10.80;;;11.10;99.90;;;;;;4905689;29;20051;-93
2022/06/04 04:35:10;;;;;;;16.92;10.30;;;11.20;99.90;;;;;;4907622;29;20059;-92
2022/06/04 04:37:38;;;;;;;20.65;10.35;;;11.50;99.90;;;;;;4904453;29;20492;-92
2022/06/04 04:40:04;;;;;;;17.45;9.73;;;11.90;99.90;;;;;;4904544;29;20099;-92
2022/06/04 04:42:30;;;;;;;14.07;8.68;;;12.60;99.90;;;;;;4925347;29;20027;-92
2022/06/04 04:44:56;;;;;;;12.68;7.50;;;13.40;99.90;;;;;;4929352;29;20098;-93
2022/06/04 04:47:23;;;;;;;8.93;6.85;;;14.10;99.90;;;;;;4920208;29;20048;-94
2022/06/04 04:49:49;;;;;;;10.90;6.47;;;14.80;99.90;;;;;;4935833;29;20052;-93
2022/06/04 04:52:15;;;;;;;10.95;6.40;;;15.20;99.90;;;;;;4935571;29;20061;-93
2022/06/04 04:54:40;;;;;;;8.77;5.35;;;15.60;99.90;;;;;;4904461;29;20078;-94
2022/06/04 04:57:09;;;;;;;5.85;4.85;;;15.90;99.90;;;;;;4936046;29;20047;-96
2022/06/04 04:59:37;;;;;;;7.57;4.57;;;15.90;99.90;;;;;;4907545;29;20107;-94
2022/06/04 05:02:02;;;;;;;9.88;5.13;;;15.20;99.90;;;;;;4890724;29;20052;-93
2022/06/04 05:04:31;;;;;;;7.68;4.85;;;16.50;99.90;;;;;;4934316;29;20147;-92
2022/06/04 05:06:57;;;;;;;7.55;5.28;;;16.30;99.90;;;;;;4901237;29;20051;-92
2022/06/04 05:09:22;;;;;;;7.55;5.40;;;16.50;99.90;;;;;;4914107;29;20050;-94
2022/06/04 05:11:49;;;;;;;9.15;5.25;;;16.50;99.90;;;;;;4895956;29;20047;-92
2022/06/04 05:14:20;;;;;;;6.43;5.13;;;16.60;99.90;;;;;;4924144;29;20134;-94
2022/06/04 05:16:49;;;;;;;8.13;5.80;;;17.10;99.90;;;;;;4923700;29;20083;-92
2022/06/04 05:19:15;;;;;;;8.20;5.57;;;16.60;99.90;;;;;;4901777;29;20058;-93
2022/06/04 05:21:46;;;;;;;9.10;5.38;;;16.70;99.90;;;;;;4906163;29;20111;-94
2022/06/04 05:24:22;;;;;;;8.55;5.50;;;16.90;99.90;;;;;;4906843;29;20051;-94
2022/06/04 05:26:57;;;;;;;8.82;5.20;;;17.50;99.90;;;;;;4904421;29;20079;-95
2022/06/04 05:29:28;;;;;;;7.05;4.80;;;17.90;99.90;;;;;;4890513;29;20048;-92
2022/06/04 05:31:54;;;;;;;5.43;3.97;;;16.40;99.90;;;;;;4901145;29;20068;-95
2022/06/04 05:34:20;;;;;;;5.45;4.70;;;18.20;99.90;;;;;;4901851;29;20493;-95
2022/06/04 05:36:49;;;;;;;7.22;4.80;;;18.30;99.90;;;;;;4897690;29;20058;-92
2022/06/04 05:39:15;;;;;;;9.55;5.88;;;18.00;99.90;;;;;;4893703;29;20101;-93
2022/06/04 05:41:43;;;;;;;8.93;4.75;;;17.30;99.90;;;;;;4915730;29;20083;-93
2022/06/04 05:44:14;;;;;;;5.72;4.57;;;17.80;99.90;;;;;;4918057;29;20112;-94
2022/06/04 05:46:44;;;;;;;5.57;4.95;;;17.20;99.90;;;;;;4902166;29;20559;-92
2022/06/04 05:49:15;;;;;;;7.18;5.03;;;17.90;99.90;;;;;;4885280;29;20063;-94
2022/06/04 05:51:46;;;;;;;5.70;4.00;;;17.00;99.90;;;;;;4885754;29;20059;-94
2022/06/04 05:54:14;;;;;;;5.55;3.35;;;17.90;99.90;;;;;;4886875;29;20052;-94
2022/06/04 05:56:45;;;;;;;7.68;4.45;;;18.50;99.90;;;;;;4901955;29;20430;-93
2022/06/04 05:59:12;;;;;;;7.70;4.90;;;17.70;99.90;;;;;;4902360;29;20055;-95
2022/06/04 06:01:44;;;;;;;5.88;4.45;;;16.50;99.90;;;;;;4903593;29;20052;-92
2022/06/04 06:04:10;;;;;;;7.22;4.25;;;17.30;99.90;;;;;;4901873;29;20051;-91
2022/06/04 06:06:39;;;;;;;6.70;4.72;;;18.00;99.90;;;;;;4886287;29;20170;-94
2022/06/04 06:09:06;;;;;;;6.95;5.15;;;17.90;99.90;;;;;;4886352;29;20056;-93
2022/06/04 06:11:32;;;;;;;6.78;4.43;;;17.30;99.90;;;;;;4902024;29;20139;-93
2022/06/04 06:14:03;;;;;;;6.68;4.57;;;18.10;99.90;;;;;;4902771;29;20098;-96
2022/06/04 06:16:30;;;;;;;5.60;5.10;;;17.50;99.90;;;;;;4903926;29;20464;-94
2022/06/04 06:18:56;;;;;;;5.35;4.75;;;17.40;99.90;;;;;;4917492;29;20056;-93
2022/06/04 06:21:29;;;;;;;6.75;5.05;;;17.20;99.90;;;;;;4917836;29;20567;-92
2022/06/04 06:23:57;;;;;;;7.18;4.22;;;17.20;99.90;;;;;;4900543;29;20060;-92
2022/06/04 06:26:26;;;;;;;5.90;4.88;;;17.30;99.90;;;;;;4901006;29;20135;-93
2022/06/04 06:28:56;;;;;;;6.18;3.80;;;17.60;99.90;;;;;;4902195;29;20139;-95
2022/06/04 06:31:23;;;;;;;7.03;4.60;;;18.10;99.90;;;;;;4903084;29;20072;-95
2022/06/04 06:33:56;;;;;;;4.65;3.63;;;17.30;99.90;;;;;;4901482;29;20067;-94
2022/06/04 06:36:22;;;;;;;5.88;4.57;;;17.50;99.90;;;;;;4901806;29;20135;-90
2022/06/04 06:38:48;;;;;;;6.05;3.97;;;17.80;99.90;;;;;;4884641;29;20095;-93
2022/06/04 06:41:15;;;;;;;4.88;4.40;;;17.80;99.90;;;;;;4901151;29;20080;-91
2022/06/04 06:43:47;;;;;;;6.07;4.47;;;18.40;99.90;;;;;;4898280;29;20143;-94
2022/06/04 06:46:24;;;;;;;5.85;3.58;;;18.90;99.90;;;;;;4913819;29;20088;-95
2022/06/04 06:48:52;;;;;;;4.40;3.50;;;19.20;99.90;;;;;;4912425;29;20076;-95
2022/06/04 06:51:25;;;;;;;6.00;3.67;;;19.50;99.90;;;;;;4902924;29;20048;-93
2022/06/04 06:53:54;;;;;;;8.50;4.82;;;19.10;99.90;;;;;;4904253;29;20079;-95
2022/06/04 06:56:27;;;;;;;6.45;4.18;;;19.00;99.90;;;;;;4900005;29;20044;-94
2022/06/04 06:58:56;;;;;;;4.63;4.10;;;17.90;99.90;;;;;;4908210;29;20047;-93
2022/06/04 07:01:28;;;;;;;6.43;4.80;;;19.80;99.90;;;;;;4916793;29;20040;-96
2022/06/04 07:04:06;;;;;;;6.47;4.80;;;19.10;99.90;;;;;;4897648;29;20125;-93
2022/06/04 07:06:36;;;;;;;6.15;4.05;;;20.00;99.90;;;;;;4875353;29;20040;-93
2022/06/04 07:09:26;;;;;;;6.10;4.25;;;20.30;99.90;;;;;;4894061;29;20050;-91
2022/06/04 07:11:56;;;;;;;5.95;4.50;;;20.80;99.90;;;;;;4910944;29;20424;-92
2022/06/04 07:14:28;;;;;;;7.65;4.95;;;21.00;99.90;;;;;;4879497;29;20048;-94
2022/06/04 07:16:59;;;;;;;7.05;4.78;;;20.80;99.90;;;;;;4896868;29;20046;-94
2022/06/04 07:19:29;;;;;;;5.10;3.95;;;21.10;99.90;;;;;;4896820;29;20044;-94
2022/06/04 07:21:55;;;;;;;6.32;4.72;;;20.80;99.90;;;;;;4878380;29;20048;-95
2022/06/04 07:24:21;;;;;;;7.50;4.63;;;21.00;99.90;;;;;;4894978;29;20512;-94
2022/06/04 07:26:50;;;;;;;6.38;4.68;;;20.80;99.90;;;;;;4885114;29;20044;-93
2022/06/04 07:29:16;;;;;;;6.35;4.80;;;21.80;99.90;;;;;;4897237;29;20497;-94
2022/06/04 07:31:41;;;;;;;8.63;5.03;;;20.20;99.90;;;;;;4894248;29;20076;-95
2022/06/04 07:34:07;;;;;;;6.80;4.97;;;20.30;99.90;;;;;;4910077;29;20139;-92
2022/06/04 07:36:35;;;;;;;6.65;5.03;;;20.60;99.90;;;;;;4912113;29;20055;-94
2022/06/04 07:39:02;;;;;;;7.25;5.47;;;20.80;99.90;;;;;;4928654;29;20119;-91
2022/06/04 07:41:30;;;;;;;8.95;5.78;;;20.70;99.90;;;;;;4911244;29;20127;-93
2022/06/04 07:43:56;;;;;;;7.07;5.55;;;20.70;99.90;;;;;;4921179;29;20036;-92
2022/06/04 07:46:22;;;;;;;7.75;5.28;;;20.90;99.90;;;;;;4912099;29;20047;-94
2022/06/04 07:48:48;;;;;;;6.18;4.90;;;20.60;99.90;;;;;;4896613;29;20115;-92
2022/06/04 07:51:14;;;;;;;7.88;5.18;;;20.50;99.90;;;;;;4913257;29;20126;-93
2022/06/04 07:53:42;;;;;;;7.47;5.07;;;20.20;99.90;;;;;;4899155;29;20098;-93
2022/06/04 07:56:19;;;;;;;8.23;4.35;;;20.30;99.90;;;;;;4913002;29;20044;-94
2022/06/04 07:58:48;;;;;;;7.70;4.95;;;20.00;99.90;;;;;;4910858;29;20055;-92
2022/06/04 08:01:16;;;;;;;6.05;4.70;;;17.90;99.90;;;;;;4895388;29;20051;-93
2022/06/04 08:03:43;;;;;;;7.28;4.53;;;18.90;99.90;;;;;;4896360;29;20145;-92
2022/06/04 08:06:10;;;;;;;7.78;4.70;;;19.40;99.90;;;;;;4896900;29;20575;-95
2022/06/04 08:08:36;;;;;;;5.07;4.03;;;19.60;99.90;;;;;;4918094;29;20055;-93
2022/06/04 08:11:30;;;;;;;5.07;4.45;;;19.60;99.90;;;;;;4904428;29;20489;-94
2022/06/04 08:13:47;;;;;;;6.72;4.78;;;20.20;99.90;;;;;;4918426;29;20135;-92
2022/06/04 08:16:16;;;;;;;6.57;4.47;;;20.40;99.90;;;;;;4919326;29;20449;-91
2022/06/04 08:18:42;;;;;;;7.97;4.78;;;20.80;99.90;;;;;;4927633;29;20488;-90
2022/06/04 08:21:08;;;;;;;6.47;5.05;;;20.80;99.90;;;;;;4917507;29;20050;-92
2022/06/04 08:23:34;;;;;;;7.05;3.72;;;21.20;99.90;;;;;;4905612;29;20059;-94
2022/06/04 08:25:59;;;;;;;7.43;4.70;;;20.90;99.90;;;;;;4922992;29;20066;-91
2022/06/04 08:28:25;;;;;;;4.78;4.07;;;20.50;99.90;;;;;;4911732;29;20110;-92
2022/06/04 08:31:01;;;;;;;5.65;4.72;;;20.70;99.90;;;;;;4930071;29;20059;-91
2022/06/04 08:33:27;;;;;;;8.07;4.65;;;21.00;99.90;;;;;;4937383;29;20094;-92
2022/06/04 08:35:52;;;;;;;6.85;4.80;;;21.30;99.90;;;;;;4935425;29;20043;-92
2022/06/04 08:38:18;;;;;;;4.60;4.18;;;20.70;99.90;;;;;;4940860;29;20074;-93
2022/06/04 08:40:50;;;;;;;7.20;4.85;;;21.40;99.90;;;;;;4914542;29;20197;-89
2022/06/04 08:43:19;;;;;;;5.55;4.30;;;21.10;99.90;;;;;;4914675;29;20044;-89
2022/06/04 08:45:45;;;;;;;5.22;4.30;;;21.40;99.90;;;;;;4924876;29;20493;-89
2022/06/04 08:48:16;;;;;;;4.93;4.25;;;21.70;99.90;;;;;;4909038;29;20358;-92
2022/06/04 08:50:42;;;;;;;5.40;4.60;;;22.10;99.90;;;;;;4946795;29;20095;-92
2022/06/04 08:53:09;;;;;;;6.20;5.07;;;22.30;99.90;;;;;;4930650;29;20074;-93
2022/06/04 08:58:47;;;;;;;7.30;4.55;;;22.40;99.90;;;;;;4912460;29;20056;-93
2022/06/04 09:01:19;;;;;;;9.00;5.30;;;22.20;99.90;;;;;;4904564;29;20266;-93
2022/06/04 09:03:48;;;;;;;5.82;4.60;;;22.20;99.90;;;;;;4908414;29;20036;-92
2022/06/04 09:06:36;;;;;;;7.55;5.65;;;22.30;99.90;;;;;;4941734;29;20335;-94
2022/06/04 09:09:12;;;;;;;6.07;4.15;;;22.30;99.90;;;;;;4912590;29;20048;-93
2022/06/04 09:11:52;;;;;;;7.20;5.40;;;22.50;99.90;;;;;;4896485;29;20039;-91
2022/06/04 09:14:24;;;;;;;5.53;4.90;;;21.90;99.90;;;;;;4892671;29;20056;-93
2022/06/04 09:17:10;;;;;;;6.50;4.45;;;22.20;99.90;;;;;;4880431;29;20123;-91
2022/06/04 09:19:37;;;;;;;5.70;4.63;;;22.40;99.90;;;;;;4910580;29;20519;-92
2022/06/04 09:22:09;;;;;;;4.43;4.03;;;22.10;99.90;;;;;;4907602;29;20040;-92
2022/06/04 09:24:36;;;;;;;5.85;4.78;;;22.10;99.90;;;;;;4879962;29;20060;-92
2022/06/04 09:27:12;;;;;;;5.78;4.70;;;22.50;99.90;;;;;;4914031;29;20055;-93
2022/06/04 09:29:57;;;;;;;5.10;3.42;;;21.90;99.90;;;;;;4899244;29;20088;-95
2022/06/04 09:32:44;;;;;;;7.72;4.72;;;22.00;99.90;;;;;;4912604;29;20044;-92
2022/06/04 09:35:16;;;;;;;4.60;4.13;;;22.00;99.90;;;;;;4904204;29;20067;-93
2022/06/04 09:37:46;;;;;;;6.63;4.28;;;22.60;99.90;;;;;;4887550;29;20108;-92
2022/06/04 09:40:17;;;;;;;4.95;3.75;;;22.90;99.90;;;;;;4904548;29;20135;-94
2022/06/04 09:42:43;;;;;;;4.80;4.25;;;22.90;99.90;;;;;;4904560;29;20540;-94
2022/06/04 09:45:22;;;;;;;5.00;4.53;;;22.40;99.90;;;;;;4936089;29;20052;-93
2022/06/04 09:47:50;;;;;;;4.82;3.92;;;21.90;99.90;;;;;;4890436;29;20501;-93
2022/06/04 09:50:29;;;;;;;5.00;4.28;;;22.30;99.90;;;;;;4911525;29;20055;-93
2022/06/04 09:53:18;;;;;;;5.15;4.00;;;22.40;99.90;;;;;;4917016;29;20208;-94
2022/06/04 09:56:05;;;;;;;7.35;3.88;;;22.40;99.90;;;;;;4936952;29;20058;-94
2022/06/04 09:58:38;;;;;;;5.55;4.22;;;22.10;99.90;;;;;;4907752;29;20056;-94
2022/06/04 10:01:28;;;;;;;8.80;4.10;;;22.30;99.90;;;;;;4906451;29;20052;-94
2022/06/04 10:04:04;;;;;;;4.50;3.55;;;22.40;99.90;;;;;;4912792;29;20048;-91
2022/06/04 10:06:29;;;;;;;4.20;3.83;;;21.90;99.90;;;;;;4927908;29;20051;-92
2022/06/04 10:12:15;;;;;;;7.63;4.57;;;22.50;99.90;;;;;;4898510;29;20059;-90
2022/06/04 10:14:41;;;;;;;4.30;3.80;;;22.70;99.90;;;;;;4919121;29;20043;-93
2022/06/04 10:17:16;;;;;;;5.20;4.05;;;22.20;99.90;;;;;;4904354;29;20048;-91
2022/06/04 10:19:55;;;;;;;6.13;4.57;;;21.80;99.90;;;;;;4908803;29;20063;-93
2022/06/04 10:22:21;;;;;;;5.70;4.15;;;21.90;99.90;;;;;;4913026;29;20073;-93
2022/06/04 10:24:58;;;;;;;5.35;4.07;;;22.10;99.90;;;;;;4879700;29;20058;-93
2022/06/04 10:27:36;;;;;;;4.70;3.95;;;22.60;99.90;;;;;;4897387;29;20051;-95
2022/06/04 10:30:24;;;;;;;4.55;4.03;;;22.60;99.90;;;;;;4934772;29;20076;-90
2022/06/04 10:33:12;;;;;;;4.22;2.80;;;22.80;99.90;;;;;;4914173;29;20051;-93
2022/06/04 10:36:05;;;;;;;3.95;3.60;;;22.90;99.90;;;;;;4926389;29;20047;-94
2022/06/04 10:38:42;;;;;;;4.82;3.70;;;22.90;99.90;;;;;;4916323;29;20040;-94
2022/06/04 10:41:30;;;;;;;4.78;3.45;;;22.30;99.90;;;;;;4933893;29;20044;-93
2022/06/04 10:44:01;;;;;;;7.53;3.95;;;22.60;99.90;;;;;;4911323;29;20127;-91
2022/06/04 10:46:48;;;;;;;5.35;4.30;;;22.50;99.90;;;;;;4921819;29;20052;-94
2022/06/04 10:49:32;;;;;;;4.80;3.85;;;22.50;99.90;;;;;;4918368;29;20052;-95
2022/06/04 10:52:04;;;;;;;;;;;23.40;99.90;;;;;;4881038;29;20094;-94
2022/06/04 10:54:40;;;;;;;6.63;4.15;;;22.10;99.90;;;;;;4927005;29;19927;-92
2022/06/04 10:57:32;;;;;;;5.57;4.43;;;22.30;99.90;;;;;;4897263;29;20040;-92
2022/06/04 11:00:18;;;;;;;7.75;4.70;;;23.10;99.90;;;;;;4927692;29;20059;-92
2022/06/04 11:02:57;;;;;;;5.75;3.42;;;23.10;99.90;;;;;;4923664;29;20039;-94
2022/06/04 11:05:42;;;;;;;4.68;3.42;;;23.10;99.90;;;;;;4913380;29;20047;-93
2022/06/04 11:08:29;;;;;;;5.63;4.13;;;23.10;99.90;;;;;;4898515;29;20063;-92
2022/06/04 11:10:59;;;;;;;5.80;4.15;;;22.70;99.90;;;;;;4916506;29;20122;-93
2022/06/04 11:13:32;;;;;;;7.43;4.80;;;22.70;99.90;;;;;;4922988;29;20064;-92
2022/06/04 11:16:12;;;;;;;4.00;3.20;;;22.60;99.90;;;;;;4958052;29;20046;-92
2022/06/04 11:18:48;;;;;;;6.03;3.95;;;22.10;99.90;;;;;;4896891;29;20099;-94
2022/06/04 11:21:26;;;;;;;4.53;4.13;;;21.50;99.90;;;;;;4891368;29;20492;-94
2022/06/04 11:24:17;;;;;;;5.28;3.42;;;21.30;99.90;;;;;;4904366;29;20059;-95
2022/06/04 11:26:51;;;;;;;4.18;3.13;;;21.60;99.90;;;;;;4888707;29;20052;-92
2022/06/04 11:29:17;;;;;;;4.05;3.47;;;21.30;99.90;;;;;;4906016;29;20052;-92
2022/06/04 11:32:10;;;;;;;5.95;3.78;;;21.10;99.90;;;;;;4905750;29;20056;-91
2022/06/04 11:34:54;;;;;;;6.78;3.60;;;21.20;99.90;;;;;;4902446;29;20064;-93
2022/06/04 11:37:51;;;;;;;5.50;3.47;;;21.50;99.90;;;;;;4903901;29;20068;-91
2022/06/04 11:40:25;;;;;;;4.57;3.70;;;20.90;99.90;;;;;;4919658;29;20143;-92
2022/06/04 11:43:12;;;;;;;8.95;4.00;;;21.10;99.90;;;;;;4908617;29;20087;-90
2022/06/04 11:45:47;;;;;;;3.90;3.60;;;21.40;99.90;;;;;;4935147;29;20400;-92
2022/06/04 11:48:31;;;;;;;5.13;3.60;;;21.40;99.90;;;;;;4895365;29;20048;-89
2022/06/04 11:51:09;;;;;;;5.88;3.60;;;21.60;99.90;;;;;;4933346;29;20174;-90
2022/06/04 11:53:58;;;;;;;4.80;3.25;;;21.60;99.90;;;;;;4926757;29;20024;-90
2022/06/04 11:56:42;;;;;;;3.33;2.90;;;21.70;99.90;;;;;;4921858;29;20099;-91
2022/06/04 11:59:17;;;;;;;6.57;3.20;;;21.70;99.90;;;;;;4924297;29;20052;-90
2022/06/04 12:01:54;;;;;;;5.35;3.15;;;21.40;99.90;;;;;;4906805;29;20046;-90
2022/06/04 12:04:21;;;;;;;7.03;3.40;;;21.50;99.90;;;;;;4946261;29;20080;-91
2022/06/04 12:06:53;;;;;;;3.90;2.90;;;21.30;99.90;;;;;;4958203;29;20059;-92
2022/06/04 12:09:29;;;;;;;5.03;3.25;;;21.20;99.90;;;;;;4926083;29;20063;-93
2022/06/04 12:12:17;;;;;;;3.60;3.30;;;21.20;99.90;;;;;;4936607;29;20103;-92
2022/06/04 12:14:49;;;;;;;7.28;3.25;;;21.10;99.90;;;;;;4916615;29;20095;-92
2022/06/04 12:17:19;;;;;;;5.25;3.70;;;21.10;99.90;;;;;;4921163;29;20052;-93
2022/06/04 12:25:39;;;;;;;4.60;2.90;;;21.50;99.90;;;;;;4908280;29;20062;-92
2022/06/04 12:28:24;;;;;;;8.25;3.53;;;21.70;99.90;;;;;;4923378;29;20043;-92
2022/06/04 12:30:50;;;;;;;5.63;3.22;;;21.70;99.90;;;;;;4923587;29;20115;-92
2022/06/04 12:33:48;;;;;;;5.07;3.05;;;21.70;99.90;;;;;;4907505;29;20052;-93
2022/06/04 12:36:26;;;;;;;6.50;3.40;;;21.60;99.90;;;;;;4922463;29;20137;-92
2022/06/04 12:39:04;;;;;;;3.55;3.00;;;21.60;99.90;;;;;;4907865;29;20051;-92
2022/06/04 12:42:00;;;;;;;5.45;3.08;;;21.80;99.90;;;;;;4907246;29;20078;-94
2022/06/04 12:44:33;;;;;;;3.95;3.17;;;21.80;99.90;;;;;;4922984;29;20094;-90
2022/06/04 12:47:22;;;;;;;4.22;2.75;;;21.80;99.90;;;;;;4888508;29;20047;-93
2022/06/04 12:49:56;;;;;;;3.13;2.45;;;21.70;99.90;;;;;;4935239;29;20055;-90
2022/06/04 12:52:45;;;;;;;6.82;3.38;;;21.60;99.90;;;;;;4914699;29;20059;-91
2022/06/04 12:55:24;;;;;;;4.47;3.22;;;21.40;99.90;;;;;;4936923;29;20048;-93
2022/06/04 12:57:54;;;;;;;4.00;3.35;;;21.30;99.90;;;;;;4910244;29;20412;-92
2022/06/04 13:00:30;;;;;;;5.00;3.22;;;20.90;99.90;;;;;;4911211;29;20111;-92
2022/06/04 13:03:04;;;;;;;5.78;3.38;;;21.10;99.90;;;;;;4897502;29;20055;-91
2022/06/04 13:05:30;;;;;;;4.30;2.60;;;21.40;99.90;;;;;;4909927;29;20068;-93
2022/06/04 13:08:19;;;;;;;4.43;2.17;;;21.40;99.90;;;;;;4895325;29;20055;-93
2022/06/04 13:10:48;;;;;;;4.13;3.60;;;21.50;99.90;;;;;;4933311;29;20047;-91
2022/06/04 13:13:38;;;;;;;4.40;2.95;;;21.00;99.90;;;;;;4905096;29;20071;-93
2022/06/04 13:16:05;;;;;;;3.83;3.42;;;21.20;99.90;;;;;;4920916;29;20048;-92
2022/06/04 13:18:39;;;;;;;4.72;3.03;;;21.20;99.90;;;;;;4892928;29;20073;-93
2022/06/04 13:21:16;;;;;;;3.92;3.33;;;21.60;99.90;;;;;;4909312;29;20048;-92
2022/06/04 13:23:41;;;;;;;4.93;3.08;;;21.40;99.90;;;;;;4891064;29;20139;-91